Winchmore Hill, United Kingdom
Current Conditions -  °F | °C
As of 8:20 AM on Sunday 23 Nov 2014 (Local Time) from EGLC Reporting Station
Heavy Rain Heavy Rain  
Wind Chill: 50°   Ceiling: 1000
Heat Index: 50°   Visibility: 4mi
Dew Point: 46°   Wind: 6mph
Humidity: 87%   Direction: 330°NNW
Pressure: 30"   Gusts: NA
Location:  51.64°N, 0.1°W
Report Text: EGLC 230820Z AUTO 33005KT 260V030 7000 +RA BKN010/// 10/08 Q1016
Loading
Personal Weather Stations






























Interactive Weather Map New forecast layout! Learn more

10-Day Weather Forecast

Advertisements
Track Severe Weather on mobile